createdAt,value
2023-02-19T00:00:29.531Z,21.2
2023-02-19T00:05:29.696Z,32.6
2023-02-19T00:10:29.528Z,27.4
2023-02-19T00:15:29.508Z,29.7
2023-02-19T00:20:29.638Z,17.5
2023-02-19T00:25:29.534Z,11.2
2023-02-19T00:30:29.521Z,18.0
2023-02-19T00:35:29.662Z,42.8
2023-02-19T00:40:29.469Z,23.3
2023-02-19T00:45:29.510Z,34.1
2023-02-19T00:50:29.565Z,40.8
2023-02-19T00:55:29.512Z,20.9
2023-02-19T01:00:29.511Z,14.3
2023-02-19T01:05:29.633Z,84.2
2023-02-19T01:10:29.513Z,13.3
2023-02-19T01:15:29.553Z,9.4
2023-02-19T01:20:29.769Z,9.0
2023-02-19T01:25:29.466Z,29.8
2023-02-19T01:30:29.457Z,9.0
2023-02-19T01:35:29.620Z,4.9
2023-02-19T01:40:29.346Z,6.5
2023-02-19T01:45:29.390Z,8.1
2023-02-19T01:50:29.421Z,6.7
2023-02-19T01:55:29.373Z,8.6
2023-02-19T02:00:29.361Z,8.1
2023-02-19T02:05:29.436Z,14.2
2023-02-19T02:10:35.379Z,14.6
2023-02-19T02:15:29.274Z,20.2
2023-02-19T02:20:29.315Z,15.4
2023-02-19T02:25:30.614Z,21.6
2023-02-19T02:30:29.375Z,41.2
2023-02-19T02:35:33.717Z,36.8
2023-02-19T02:40:29.218Z,26.5
2023-02-19T02:45:29.414Z,18.8
2023-02-19T02:50:29.241Z,28.4
2023-02-19T02:55:29.229Z,32.0
2023-02-19T03:00:29.313Z,33.9
2023-02-19T03:05:29.183Z,15.2
2023-02-19T03:10:29.190Z,12.2
2023-02-19T03:15:29.350Z,11.1
2023-02-19T03:20:29.232Z,10.4
2023-02-19T03:25:29.235Z,19.1
2023-02-19T03:30:29.394Z,10.2
2023-02-19T03:35:29.157Z,11.1
2023-02-19T03:40:29.134Z,9.3
2023-02-19T03:45:29.245Z,7.0
2023-02-19T03:50:29.145Z,6.0
2023-02-19T03:55:29.166Z,5.1
2023-02-19T04:00:29.251Z,5.4
2023-02-19T04:05:29.096Z,8.2
2023-02-19T04:10:29.105Z,33.1
2023-02-19T04:15:29.217Z,28.0
2023-02-19T04:20:29.086Z,39.3
2023-02-19T04:25:29.045Z,12.1
2023-02-19T04:30:29.348Z,7.1
2023-02-19T04:35:29.026Z,7.7
2023-02-19T04:40:29.074Z,15.4
2023-02-19T04:45:29.152Z,20.8
2023-02-19T04:50:29.146Z,17.8
2023-02-19T04:55:28.977Z,42.8
2023-02-19T05:00:29.013Z,11.1
2023-02-19T05:05:28.990Z,6.1
2023-02-19T05:10:28.982Z,5.5
2023-02-19T05:15:29.172Z,10.5
2023-02-19T05:20:29.036Z,9.4
2023-02-19T05:25:28.940Z,7.3
2023-02-19T05:30:29.088Z,8.1
2023-02-19T05:35:28.973Z,10.0
2023-02-19T05:40:29.240Z,10.9
2023-02-19T05:45:29.031Z,8.5
2023-02-19T05:50:28.896Z,10.8
2023-02-19T05:55:28.911Z,13.1
2023-02-19T06:00:29.041Z,25.4
2023-02-19T06:05:28.911Z,27.9
2023-02-19T06:10:28.879Z,36.4
2023-02-19T06:15:29.641Z,91.6
2023-02-19T06:20:29.515Z,123.5
2023-02-19T06:25:28.889Z,123.3
2023-02-19T06:30:28.901Z,56.0
2023-02-19T06:35:28.976Z,30.3
2023-02-19T06:40:28.813Z,25.3
2023-02-19T06:45:28.868Z,24.7
2023-02-19T06:50:28.964Z,33.3
2023-02-19T06:55:28.842Z,86.1
2023-02-19T07:00:28.775Z,57.0
2023-02-19T07:05:28.897Z,54.5
2023-02-19T07:10:28.762Z,53.3
2023-02-19T07:15:28.764Z,37.0
2023-02-19T07:20:28.833Z,22.8
2023-02-19T07:25:28.771Z,18.7
2023-02-19T07:30:28.790Z,27.6
2023-02-19T07:35:28.867Z,24.8
2023-02-19T07:40:28.778Z,39.2
2023-02-19T07:45:28.750Z,27.6
2023-02-19T07:50:28.842Z,26.7
2023-02-19T07:55:28.790Z,22.4
2023-02-19T08:00:28.782Z,22.1
2023-02-19T08:05:28.889Z,24.0
2023-02-19T08:10:28.849Z,17.3
2023-02-19T08:15:28.738Z,20.5
2023-02-19T08:20:28.803Z,16.6
2023-02-19T08:25:28.668Z,21.7
2023-02-19T08:30:28.815Z,12.8
2023-02-19T08:35:28.777Z,10.2
2023-02-19T08:40:28.700Z,8.6
2023-02-19T08:45:28.646Z,10.4
2023-02-19T08:50:28.704Z,10.0
2023-02-19T08:55:28.793Z,49.2
2023-02-19T09:00:28.616Z,35.1
2023-02-19T09:05:28.850Z,14.1
2023-02-19T09:10:28.669Z,3.5
2023-02-19T09:15:29.118Z,2.7
2023-02-19T09:20:28.690Z,2.7
2023-02-19T09:25:32.847Z,2.3
2023-02-19T09:30:28.575Z,2.0
2023-02-19T09:35:28.595Z,4.9
2023-02-19T09:40:28.507Z,4.0
2023-02-19T09:45:28.571Z,4.8
2023-02-19T09:50:28.728Z,6.3
2023-02-19T09:55:28.540Z,4.3
2023-02-19T10:00:28.582Z,4.4
2023-02-19T10:05:28.622Z,4.4
2023-02-19T10:10:28.475Z,4.1
2023-02-19T10:15:28.543Z,4.1
2023-02-19T10:20:28.606Z,5.0
2023-02-19T10:25:28.592Z,4.6
2023-02-19T10:30:28.423Z,5.9
2023-02-19T10:35:28.460Z,6.4
2023-02-19T10:40:28.699Z,5.9
2023-02-19T10:45:28.390Z,4.9
2023-02-19T10:50:28.366Z,4.6
2023-02-19T10:55:28.661Z,4.9
2023-02-19T11:00:28.371Z,5.2
2023-02-19T11:05:28.462Z,5.6
2023-02-19T11:10:28.670Z,4.4
2023-02-19T11:15:28.413Z,5.4
2023-02-19T11:20:29.921Z,5.2
2023-02-19T11:25:28.302Z,6.6
2023-02-19T11:30:28.350Z,5.5
2023-02-19T11:35:28.333Z,4.8
2023-02-19T11:40:28.570Z,4.0
2023-02-19T11:45:28.287Z,4.5
2023-02-19T11:50:28.279Z,7.0
2023-02-19T11:55:28.434Z,2.9
2023-02-19T12:00:28.252Z,5.1
2023-02-19T12:05:28.367Z,8.9
2023-02-19T12:10:28.401Z,5.1
2023-02-19T12:15:28.258Z,18.7
2023-02-19T12:20:30.809Z,6.3
2023-02-19T12:25:28.350Z,23.6
2023-02-19T12:30:32.410Z,19.3
2023-02-19T12:35:28.193Z,33.3
2023-02-19T12:40:29.707Z,38.5
2023-02-19T12:45:32.936Z,29.3
2023-02-19T12:50:29.306Z,42.4
2023-02-19T12:55:28.344Z,14.1
2023-02-19T13:00:28.130Z,7.0
2023-02-19T13:05:28.228Z,8.0
2023-02-19T13:10:28.347Z,10.3
2023-02-19T13:15:28.660Z,18.8
2023-02-19T13:20:28.092Z,17.7
2023-02-19T13:25:28.328Z,20.4
2023-02-19T13:30:28.153Z,14.1
2023-02-19T13:35:28.102Z,33.6
2023-02-19T13:40:28.194Z,15.2
2023-02-19T13:45:28.378Z,23.3
2023-02-19T13:50:28.082Z,17.3
2023-02-19T13:55:28.099Z,10.2
2023-02-19T14:00:28.048Z,12.1
2023-02-19T14:05:31.791Z,15.1
2023-02-19T14:10:28.222Z,19.1
2023-02-19T14:15:28.110Z,14.8
2023-02-19T14:20:29.250Z,9.8
2023-02-19T14:25:28.107Z,12.3
2023-02-19T14:30:29.532Z,16.0
2023-02-19T14:35:28.783Z,14.4
2023-02-19T14:40:29.648Z,24.3
2023-02-19T14:45:28.004Z,20.8
2023-02-19T14:50:29.504Z,16.8
2023-02-19T14:55:28.074Z,16.0
2023-02-19T15:00:27.956Z,20.2
2023-02-19T15:05:28.156Z,47.6
2023-02-19T15:10:29.405Z,16.3
2023-02-19T15:15:28.218Z,15.8
2023-02-19T15:20:29.298Z,16.2
2023-02-19T15:25:28.412Z,20.4
2023-02-19T15:30:30.222Z,26.3
2023-02-19T15:35:48.815Z,22.1
2023-02-19T15:41:04.576Z,39.1
2023-02-19T15:45:29.228Z,28.5
2023-02-19T15:50:28.260Z,29.3
2023-02-19T15:55:28.058Z,23.5
2023-02-19T16:00:29.493Z,55.6
2023-02-19T16:05:28.051Z,44.8
2023-02-19T16:10:27.914Z,40.9
2023-02-19T16:15:30.811Z,28.4
2023-02-19T16:20:29.013Z,15.2
2023-02-19T16:25:27.839Z,27.7
2023-02-19T16:30:27.890Z,32.4
2023-02-19T16:35:27.929Z,24.1
2023-02-19T16:40:27.769Z,26.1
2023-02-19T16:45:28.170Z,41.1
2023-02-19T16:50:27.924Z,29.7
2023-02-19T16:55:27.877Z,50.3
2023-02-19T17:00:28.124Z,33.8
2023-02-19T17:05:30.811Z,25.2
2023-02-19T17:10:27.922Z,31.1
2023-02-19T17:15:27.893Z,75.2
2023-02-19T17:20:28.407Z,39.4
2023-02-19T17:25:27.757Z,29.2
2023-02-19T17:30:28.132Z,33.0
2023-02-19T17:35:27.703Z,42.9
2023-02-19T17:40:33.110Z,54.7
2023-02-19T17:45:27.883Z,56.7
2023-02-19T17:50:27.818Z,60.4
2023-02-19T17:55:27.633Z,50.3
2023-02-19T18:00:27.651Z,48.3
2023-02-19T18:05:27.845Z,41.8
2023-02-19T18:10:27.858Z,42.6
2023-02-19T18:15:28.020Z,46.3
2023-02-19T18:20:30.689Z,48.8
2023-02-19T18:25:27.716Z,44.8
2023-02-19T18:30:27.799Z,36.7
2023-02-19T18:35:27.804Z,42.8
2023-02-19T18:40:32.169Z,74.1
2023-02-19T18:45:27.956Z,253.3
2023-02-19T18:50:28.026Z,60.7
2023-02-19T18:55:27.932Z,33.1
2023-02-19T19:00:30.109Z,64.3
2023-02-19T19:05:28.451Z,113.5
2023-02-19T19:10:28.912Z,138.5
2023-02-19T19:15:28.971Z,115.7
2023-02-19T19:20:28.373Z,107.0
2023-02-19T19:25:30.562Z,174.4
2023-02-19T19:30:28.720Z,170.1
2023-02-19T19:35:28.697Z,103.4
2023-02-19T19:40:28.532Z,178.4
2023-02-19T19:45:31.297Z,169.3
2023-02-19T19:50:28.439Z,351.5
2023-02-19T19:55:28.446Z,223.1
2023-02-19T20:00:28.144Z,164.3
2023-02-19T20:05:28.611Z,310.9
2023-02-19T20:10:28.345Z,159.0
2023-02-19T20:15:28.339Z,154.9
2023-02-19T20:20:28.120Z,176.1
2023-02-19T20:25:28.319Z,160.5
2023-02-19T20:30:29.335Z,114.5
2023-02-19T20:35:27.858Z,166.7
2023-02-19T20:40:27.787Z,89.2
2023-02-19T20:45:28.654Z,97.7
2023-02-19T20:50:27.561Z,146.7
2023-02-19T20:55:27.291Z,79.2
2023-02-19T21:00:28.128Z,69.2
